Updated27/02/2021 5:10pm 
 

Nearby Airport METAR Reports

 

KVSF - Springfield, Vermont, USA
Distance from station: WSW 8mi, 12km
Updated: 02/27/2021 4:54pm
Mist, Overcast
Mist, Overcast
 Wind from calm
Wind: Calm
Temperature: 34°F , 1°C
Dew Point: 32°F , 0°C
Humidity: 93%
Barometer: 29.94 inHg , 1013.9 hPa
Summary: Mist
Clouds: Overcast
Visibility: 6 miles , 10 km
Cloud details: Overcast 600 ft
2021/02/27 21:54 KVSF 272154Z AUTO 00000KT 6SM BR OVC006 01/00 A2994 RMK AO2 RAE2055 SLP148 P0000 T00110000
KLEB - Lebanon, New Hampshire, USA
Distance from station: N 18mi, 29km
Updated: 02/27/2021 5:02pm
Mist, Overcast
Mist, Overcast
 Wind from calm
Wind: Calm
Temperature: 36°F , 2°C
Dew Point: 32°F , 0°C
Humidity: 87%
Barometer: 29.93 inHg , 1013.5 hPa
Summary: Mist
Clouds: Overcast
Visibility: 4 miles , 6 km
Cloud details: Few Clouds 900 ft
Mostly cloudy 2000 ft
Overcast 2800 ft
2021/02/27 22:02 KLEB 272202Z 00000KT 4SM BR FEW009 BKN020 OVC028 02/00 A2993 RMK AO2 T00170000
KRUT - Rutland State, Vermont, USA
Distance from station: WNW 31mi, 50km
Updated: 02/27/2021 4:56pm
Overcast
Overcast
 Wind from W
Wind: W 12 mph , 19 km/h
Temperature: 43°F , 6°C
Wind Chill: 37°F , 3°C
Dew Point: 39°F , 4°C
Humidity: 87%
Barometer: 29.94 inHg , 1013.9 hPa
Clouds: Overcast
Visibility: 10 miles , 16 km
Cloud details: Overcast 2000 ft
2021/02/27 21:56 KRUT 272156Z AUTO 28010KT 250V320 10SM OVC020 06/04 A2994 RMK AO2 SLP141 T00560044 $
 
KEEN - Keene/Dillant, New Hampshire, USA
Distance from station: S 34mi, 55km
Updated: 02/27/2021 5:03pm
Mist, Overcast
Mist, Overcast
 Wind from calm
Wind: Calm
Temperature: 36°F , 2°C
Dew Point: 36°F , 2°C
Humidity: 100%
Barometer: 29.95 inHg , 1014.2 hPa
Summary: Mist
Clouds: Overcast
Visibility: 2 miles , 3 km
Cloud details: Overcast 200 ft
2021/02/27 22:03 KEEN 272203Z AUTO 00000KT 2SM BR OVC002 02/02 A2995 RMK AO2 CIG 002V006 FZRANO $
K1P1 - Plymouth, New Hampshire, USA
Distance from station: NE 42mi, 67km
Updated: 02/27/2021 5:15pm
Mist, Overcast
Mist, Overcast
 Wind from calm
Wind: Calm
Temperature: 32°F , 0°C
Dew Point: 32°F , 0°C
Humidity: 100%
Barometer: 29.94 inHg , 1013.9 hPa
Summary: Mist
Clouds: Overcast
Visibility: 3 miles , 5 km
Cloud details: Partly cloudy 200 ft
Overcast 1800 ft
2021/02/27 22:15 K1P1 272215Z AUTO 00000KT 3SM BR SCT002 OVC018 00/00 A2994 RMK AO2 T00001001
KAFN - Jaffrey, New Hampshire, USA
Distance from station: SSE 44mi, 70km
Updated: 02/27/2021 4:52pm
Mist, Overcast
Mist, Overcast
 Wind from calm
Wind: Calm
Temperature: 37°F , 3°C
Dew Point: 36°F , 2°C
Humidity: 93%
Barometer: 29.92 inHg , 1013.2 hPa
Summary: Mist
Clouds: Overcast
Visibility: 4 miles , 6 km
Cloud details: Overcast 300 ft
2021/02/27 21:52 KAFN 272152Z AUTO 00000KT 4SM BR OVC003 03/02 A2992 RMK AO2 SLP150 T00280022
 
KCON - Concord, New Hampshire, USA
Distance from station: ESE 45mi, 73km
Updated: 02/27/2021 4:51pm
Mist, Overcast
Mist, Overcast
 Wind from NW
Wind: NW 9 mph , 15 km/h
Temperature: 34°F , 1°C
Wind Chill: 27°F , -3°C
Dew Point: 30°F , -1°C
Humidity: 87%
Barometer: 29.95 inHg , 1014.2 hPa
Summary: Mist
Clouds: Overcast
Visibility: 3 miles , 5 km
Cloud details: Few Clouds 300 ft
Mostly cloudy 800 ft
Overcast 1300 ft
2021/02/27 21:51 KCON 272151Z AUTO 32008KT 3SM BR FEW003 BKN008 OVC013 01/M01 A2995 RMK AO2 UPE2053 SLP148 P0000 T00061006
KLCI - Laconia Muni, New Hampshire, USA
Distance from station: ENE 49mi, 80km
Updated: 02/27/2021 4:56pm
Light rain, Mist, Overcast
Light rain, Mist, Overcast
 Wind from calm
Wind: Calm
Temperature: 34°F , 1°C
Dew Point: 34°F , 1°C
Humidity: 100%
Barometer: 29.95 inHg , 1014.2 hPa
Summary: Light rain, Mist
Clouds: Overcast
Visibility: 2 1/2 miles , 4 km
Cloud details: Overcast 400 ft
2021/02/27 21:56 KLCI 272156Z AUTO 00000KT 2 1/2SM -RA BR OVC004 01/01 A2995 RMK AO2 RAE15B35UPB15E35 SLP150 P0001 T00110006 FZRANO
KDDH - Bennington, Vermont, USA
Distance from station: SW 55mi, 89km
Updated: 02/27/2021 4:54pm
Overcast
Overcast
 Wind from N
Wind: N 5 mph , 7 km/h
Temperature: 43°F , 6°C
Wind Chill: 40°F , 4°C
Dew Point: 36°F , 2°C
Humidity: 76%
Barometer: 29.98 inHg , 1015.2 hPa
Clouds: Overcast
Visibility: 10 miles , 16 km
Cloud details: Overcast 2700 ft
2021/02/27 21:54 KDDH 272154Z AUTO 01004KT 10SM OVC027 06/02 A2998 RMK AO2 SLP160 T00560022
 
K6B0 - Middlebury, Vermont, USA
Distance from station: NW 56mi, 90km
Updated: 02/27/2021 4:55pm
Overcast
Overcast
 Wind from SSE
Wind: SSE 7 mph , 11 km/h, Gust: 18 mph , 30 km/h
Temperature: 39°F , 4°C
Wind Chill: 34°F , 1°C
Dew Point: 37°F , 3°C
Humidity: 93%
Barometer: 29.92 inHg , 1013.2 hPa
Clouds: Overcast
Visibility: 10 miles , 16 km
Cloud details: Partly cloudy 2100 ft
Overcast 2800 ft
2021/02/27 21:55 K6B0 272155Z AUTO 16006G16KT 10SM SCT021 OVC028 04/03 A2992 RMK AO2 T00420027
KMHT - Manchester, New Hampshire, USA
Distance from station: ESE 56mi, 90km
Updated: 02/27/2021 4:53pm
Mist, Overcast
Mist, Overcast
 Wind from NW
Wind: NW 7 mph , 11 km/h
Temperature: 36°F , 2°C
Wind Chill: 30°F , -1°C
Dew Point: 34°F , 1°C
Humidity: 93%
Barometer: 29.93 inHg , 1013.5 hPa
Summary: Mist
Clouds: Overcast
Visibility: 2 miles , 3 km
Cloud details: Mostly cloudy 300 ft
Overcast 1100 ft
2021/02/27 21:53 KMHT 272153Z 32006KT 2SM BR BKN003 OVC011 02/01 A2993 RMK AO2 SFC VIS 4 SLP153 RAB2058E15 P0000 T00220006
KORE - Orange, Massachusetts, USA
Distance from station: S 56mi, 90km
Updated: 02/27/2021 4:52pm
Fog, Overcast
Fog, Overcast
 Wind from calm
Wind: Calm
Temperature: 37°F , 3°C
Dew Point: 37°F , 3°C
Humidity: 100%
Barometer: 29.96 inHg , 1014.6 hPa
Summary: Fog
Clouds: Overcast
Visibility: 1/4 mile , 0.4 km
Cloud details: Overcast 300 ft
2021/02/27 21:52 KORE 272152Z AUTO 00000KT 1/4SM FG OVC003 03/03 A2996 RMK AO2 SLP152 T00280028
 
KMPV - Montpelier/Barre, Vermont, USA
Distance from station: N 58mi, 93km
Updated: 02/27/2021 4:51pm
Overcast
Overcast
 Wind from calm
Wind: Calm
Temperature: 43°F , 6°C
Dew Point: 34°F , 1°C
Humidity: 71%
Barometer: 29.92 inHg , 1013.2 hPa
Clouds: Overcast
Visibility: 10 miles , 16 km
Cloud details: Few Clouds 800 ft
Mostly cloudy 2400 ft
Overcast 3500 ft
2021/02/27 21:51 KMPV 272151Z AUTO 00000KT 10SM FEW008 BKN024 OVC035 06/01 A2992 RMK AO2 SLP143 T00560006 TSNO
KASH - Nashua/Boire Fld, New Hampshire, USA
Distance from station: SE 59mi, 95km
Updated: 02/27/2021 4:56pm
Overcast
Overcast
 Wind from WNW
Wind: WNW 7 mph , 11 km/h
Temperature: 36°F , 2°C
Wind Chill: 30°F , -1°C
Dew Point: 36°F , 2°C
Humidity: 100%
Barometer: 29.95 inHg , 1014.2 hPa
Clouds: Overcast
Visibility: 10 miles , 16 km
Cloud details: Overcast 400 ft
2021/02/27 21:56 KASH 272156Z 30006KT 10SM OVC004 02/02 A2995 RMK AO2 RAE19UPB19E22 SLP150 P0000 T00220022
KAQW - North Adams, Massachusetts, USA
Distance from station: SW 62mi, 99km
Updated: 02/27/2021 4:52pm
Overcast
Overcast
 Wind from calm
Wind: Calm
Temperature: 39°F , 4°C
Dew Point: 37°F , 3°C
Humidity: 93%
Barometer: 29.98 inHg , 1015.2 hPa
Clouds: Overcast
Visibility: 10 miles , 16 km
Cloud details: Overcast 2500 ft
2021/02/27 21:52 KAQW 272152Z AUTO 00000KT 10SM OVC025 04/03 A2998 RMK AO2 SLP157 T00390028
 
KGFL - Glens Falls, New York, USA
Distance from station: W 63mi, 101km
Updated: 02/27/2021 4:53pm
Mist, Overcast
Mist, Overcast
 Wind from SSE
Wind: SSE 5 mph , 7 km/h
Temperature: 36°F , 2°C
Wind Chill: 32°F , 0°C
Dew Point: 34°F , 1°C
Humidity: 93%
Barometer: 29.96 inHg , 1014.6 hPa
Summary: Mist
Clouds: Overcast
Visibility: 4 miles , 6 km
Cloud details: Overcast 300 ft
2021/02/27 21:53 KGFL 272153Z AUTO 16004KT 4SM BR OVC003 02/01 A2996 RMK AO2 SLP155 T00220011
KFIT - Fitchburg, Massachusetts, USA
Distance from station: SSE 65mi, 105km
Updated: 02/27/2021 4:52pm
Overcast
Overcast
 Wind from NW
Wind: NW 3 mph , 6 km/h
Temperature: 36°F , 2°C
Dew Point: 36°F , 2°C
Humidity: 100%
Barometer: 29.94 inHg , 1013.9 hPa
Clouds: Overcast
Visibility: 7 miles , 11 km
Cloud details: Overcast 800 ft
2021/02/27 21:52 KFIT 272152Z AUTO 31003KT 7SM OVC008 02/02 A2994 RMK AO2 RAE07 CIG 004V009 SLP143 P0000 T00170017
KDAW - Rochester, New Hampshire, USA
Distance from station: E 73mi, 118km
Updated: 02/27/2021 5:00pm
Mist, Overcast
Mist, Overcast
 Wind from NW
Wind: NW 8 mph , 13 km/h
Temperature: 36°F , 2°C
Wind Chill: 30°F , -1°C
Dew Point: 34°F , 1°C
Humidity: 93%
Barometer: 29.92 inHg , 1013.2 hPa
Summary: Mist
Clouds: Overcast
Visibility: 1 mile , 2 km
Cloud details: Overcast 300 ft
2021/02/27 22:00 KDAW 272200Z AUTO 31007KT 1SM BR VV003 02/01 A2992 RMK AO2 T00220011
 
K1V4 - St. Johnsbury, Vermont, USA
Distance from station: NNE 74mi, 119km
Updated: 02/27/2021 4:54pm

 
Temperature: 36°F , 2°C
Dew Point: 32°F , 0°C
Humidity: 87%
Barometer: 29.89 inHg , 1012.2 hPa
2021/02/27 21:54 K1V4 272154Z AUTO 02/00 A2989 RMK AO1 SLP138 T00220000
KLWM - Lawrence, Massachusetts, USA
Distance from station: SE 77mi, 124km
Updated: 02/27/2021 5:01pm
Mist, Overcast
Mist, Overcast
 Wind from WNW
Wind: WNW 7 mph , 11 km/h
Temperature: 39°F , 4°C
Wind Chill: 34°F , 1°C
Dew Point: 37°F , 3°C
Humidity: 93%
Barometer: 29.94 inHg , 1013.9 hPa
Summary: Mist
Clouds: Overcast
Visibility: 3 miles , 5 km
Cloud details: Overcast 300 ft
2021/02/27 22:01 KLWM 272201Z 29006KT 3SM BR OVC003 04/03 A2994 RMK AO2 RAE2155 P0000 T00390033



Flag Counter
free counter page views since 4/29/2009